Aviation Digital Data Service (ADDS)

Output produced by METARs form (0054 UTC 28 July 2016)
found at http://www.aviationweather.gov/adds/metars/
 
KEWR 272320Z 2800/2906 16008KT P6SM SCT070 
     FM280300 22004KT P6SM FEW250 
     FM281400 15006KT P6SM FEW060 BKN250 
     FM281800 19008KT P6SM SCT060 BKN150 
     FM290100 19006KT P6SM BKN060 BKN150